Thursday, October 18, 2018, 9:46 AM EDT
Back to Local

KTHV, York Airport

Location: Spring Grove, PA, United States Lat: 39.917
Local Time: 9:46 AM EDT (13:46 GMT) Lon: -76.883
Time Zone: US/Eastern Elev: 478 ft

Show me the last for .
Show Decoded

2018-10-18 08:53 METAR KTHV 181253Z AUTO A3039 RMK AO2 SLPNO PWINO FZRANO $ =
2018-10-18 07:53 METAR KTHV 181153Z AUTO A3037 RMK AO2 SLPNO 53017 PWINO FZRANO $ =
2018-10-18 06:53 METAR KTHV 181053Z AUTO A3034 RMK AO2 SLPNO PWINO FZRANO $ =
2018-10-18 05:53 METAR KTHV 180953Z AUTO A3033 RMK AO2 SLPNO PWINO FZRANO $ =
2018-10-18 04:53 METAR KTHV 180853Z AUTO A3032 RMK AO2 SLPNO 53017 PWINO FZRANO $ =
2018-10-18 03:53 METAR KTHV 180753Z AUTO A3029 RMK AO2 SLPNO PWINO FZRANO $ =
2018-10-18 02:53 METAR KTHV 180653Z AUTO A3029 RMK AO2 SLPNO PWINO FZRANO $ =
2018-10-18 01:53 METAR KTHV 180553Z AUTO A3027 RMK AO2 SLPNO 52023 PWINO FZRANO $ =
2018-10-18 00:53 METAR KTHV 180453Z AUTO A3024 RMK AO2 SLPNO PWINO FZRANO $ =
2018-10-17 23:53 METAR KTHV 180353Z AUTO A3023 RMK AO2 SLPNO PWINO FZRANO $ =
2018-10-17 22:53 METAR KTHV 180253Z AUTO A3020 RMK AO2 SLPNO 53034 PWINO FZRANO $ =
2018-10-17 21:53 METAR KTHV 180153Z AUTO A3016 RMK AO2 SLPNO PWINO FZRANO $ =
2018-10-17 20:53 METAR KTHV 180053Z AUTO A3013 RMK AO2 SLPNO PWINO FZRANO $ =
2018-10-17 19:53 METAR KTHV 172353Z AUTO A3010 RMK AO2 SLPNO 52030 PWINO FZRANO $ =
2018-10-17 18:53 METAR KTHV 172253Z AUTO A3007 RMK AO2 SLPNO PWINO FZRANO $ =
2018-10-17 17:53 METAR KTHV 172153Z AUTO A3004 RMK AO2 SLPNO PWINO FZRANO $ =
2018-10-17 16:53 METAR KTHV 172053Z AUTO A3001 RMK AO2 SLPNO PWINO FZRANO $ =
2018-10-17 15:53 METAR KTHV 171953Z AUTO A2999 RMK AO2 SLPNO PWINO FZRANO $ =
2018-10-17 14:53 METAR KTHV 171853Z AUTO A2996 RMK AO2 SLPNO PWINO FZRANO $ =
2018-10-17 13:53 METAR KTHV 171753Z AUTO A2996 RMK AO2 SLPNO 58026 PWINO FZRANO $ =
2018-10-17 12:53 METAR KTHV 171653Z AUTO 16/04 A3000 RMK AO2 SLP161 T01560039 PWINO $ =
2018-10-17 11:53 METAR KTHV 171553Z AUTO 25012G19KT 10SM CLR 14/04 A3002 RMK AO2 SLP168 T01440039
                 =
2018-10-17 10:53 METAR KTHV 171453Z AUTO 24009G16KT 10SM CLR 13/04 A3004 RMK AO2 SLP177 T01330039
                 58001 =
2018-10-17 09:53 METAR KTHV 171353Z AUTO 25011G17KT 220V280 10SM CLR 12/03 A3004 RMK AO2 SLP177
                 T01170028 =

Support USWX by starting your Amazon purchase here.